Date,TemperatureHighF,TemperatureAvgF,TemperatureLowF,DewpointHighF,DewpointAvgF,DewpointLowF,HumidityHigh,HumidityAvg,HumidityLow,PressureMaxIn,PressureMinIn,WindSpeedMaxMPH,WindSpeedAvgMPH,GustSpeedMaxMPH,PrecipitationSumIn
2013-11-1,64.9,60.0,54.9,61.5,59.2,51.1,99,97,87,29.57,29.35,10,2,0,0.53
2013-11-2,63.0,53.0,46.4,50.3,41.2,34.5,85,65,36,29.66,29.42,5,2,0,0.00
2013-11-3,55.6,47.1,41.5,37.8,36.3,31.3,84,68,40,30.01,29.65,5,2,0,0.00
2013-11-4,52.0,44.4,38.1,34.8,32.5,30.4,87,64,45,30.16,30.01,4,1,0,0.00
2013-11-5,53.6,43.7,34.3,43.5,35.1,29.0,89,72,51,30.18,30.07,7,2,0,0.00
2013-11-6,63.5,53.2,45.1,53.3,49.8,43.8,99,89,68,30.08,29.81,3,1,0,0.01
2013-11-7,60.3,51.4,40.5,57.0,45.3,31.5,99,81,54,29.81,29.67,12,2,0,0.01
2013-11-8,52.7,44.9,37.2,30.8,20.1,11.7,70,40,20,29.96,29.80,6,2,0,0.00
2013-11-9,52.3,43.2,33.3,33.7,27.0,20.8,67,53,39,30.00,29.86,8,2,0,0.00
2013-11-10,64.9,53.7,43.2,34.9,29.6,23.4,68,40,23,29.92,29.82,7,2,0,0.00
2013-11-11,58.3,48.7,39.6,30.4,25.9,22.7,57,41,29,29.99,29.79,5,2,0,0.00
2013-11-12,54.1,42.0,24.4,37.5,25.9,12.8,73,53,36,30.06,29.73,11,4,0,0.00
2013-11-13,45.5,31.4,22.3,18.2,14.0,11.0,71,51,26,30.15,30.05,7,3,0,0.00
2013-11-14,54.0,40.3,26.6,20.6,16.7,10.7,63,40,25,30.09,29.96,6,2,0,0.00
2013-11-15,51.8,46.9,38.3,47.2,32.0,14.0,99,61,28,29.96,29.84,6,2,0,0.30
2013-11-16,59.4,51.3,47.7,55.4,50.8,47.4,99,98,86,29.92,29.84,4,1,0,0.00
2013-11-17,59.7,54.9,51.8,59.4,54.6,51.5,99,99,96,29.87,29.57,6,1,0,0.58
2013-11-18,64.6,55.9,45.1,59.4,43.4,30.3,99,66,32,29.66,29.52,8,3,0,0.03
2013-11-19,52.9,43.9,37.6,31.6,25.8,22.9,61,49,35,29.89,29.66,15,3,0,0.00
2013-11-20,47.5,40.0,33.4,30.9,27.3,25.1,75,61,44,30.07,29.88,7,3,0,0.00
2013-11-21,45.5,42.5,39.0,45.2,38.0,29.3,99,85,65,30.12,30.02,7,2,0,0.07
2013-11-22,56.5,52.0,45.5,56.2,51.7,45.2,99,99,99,30.05,29.80,7,2,0,0.16
2013-11-23,55.2,47.2,33.1,54.9,41.7,22.3,99,82,59,29.84,29.76,9,4,0,0.00
2013-11-24,34.7,27.6,21.7,21.1,11.2,5.5,68,51,33,30.09,29.83,10,4,0,0.00
2013-11-25,38.5,29.2,21.0,24.1,9.6,2.4,79,44,25,30.11,29.91,4,1,0,0.00
2013-11-26,44.6,37.1,28.2,44.3,36.2,21.6,99,97,70,29.91,29.28,5,2,0,2.57
2013-11-27,43.7,31.0,22.6,43.4,26.6,14.4,99,84,63,29.79,29.22,16,7,0,0.06
2013-11-28,43.9,31.1,20.8,24.0,18.8,14.6,79,62,42,30.07,29.78,7,3,0,0.03
2013-11-29,52.0,39.4,29.8,26.0,21.8,18.2,75,50,33,30.21,30.06,5,2,0,0.00
2013-11-30,43.9,33.9,28.6,23.4,22.2,20.5,76,63,42,30.22,30.00,8,2,0,0.00